createdAt,value
2018-08-13T00:01:44.949Z,15.70
2018-08-13T00:04:13.496Z,15.70
2018-08-13T00:06:42.060Z,15.70
2018-08-13T00:09:10.589Z,15.70
2018-08-13T00:11:39.157Z,15.70
2018-08-13T00:14:07.730Z,15.70
2018-08-13T00:16:36.328Z,15.70
2018-08-13T00:19:04.881Z,15.70
2018-08-13T00:21:33.420Z,15.70
2018-08-13T00:24:01.992Z,15.60
2018-08-13T00:26:30.563Z,15.60
2018-08-13T00:28:59.090Z,15.50
2018-08-13T00:31:27.624Z,15.40
2018-08-13T00:33:56.137Z,15.30
2018-08-13T00:36:24.663Z,15.30
2018-08-13T00:38:53.231Z,15.20
2018-08-13T00:41:21.774Z,15.10
2018-08-13T00:43:50.306Z,15.00
2018-08-13T00:46:18.834Z,15.00
2018-08-13T00:48:47.344Z,15.00
2018-08-13T00:51:15.903Z,14.90
2018-08-13T00:53:44.416Z,14.90
2018-08-13T00:56:13.005Z,14.90
2018-08-13T00:58:41.585Z,15.00
2018-08-13T01:01:10.095Z,14.90
2018-08-13T01:03:38.596Z,14.90
2018-08-13T01:06:07.156Z,14.90
2018-08-13T01:08:35.662Z,15.00
2018-08-13T01:11:04.256Z,14.90
2018-08-13T01:13:32.754Z,14.90
2018-08-13T01:16:01.307Z,14.80
2018-08-13T01:18:29.895Z,14.80
2018-08-13T01:20:58.400Z,14.80
2018-08-13T01:23:26.937Z,14.80
2018-08-13T01:25:55.477Z,14.70
2018-08-13T01:28:24.003Z,14.80
2018-08-13T01:30:52.551Z,14.80
2018-08-13T01:33:21.080Z,14.80
2018-08-13T01:35:49.604Z,14.80
2018-08-13T01:38:18.188Z,14.80
2018-08-13T01:40:46.715Z,14.80
2018-08-13T01:43:15.261Z,14.90
2018-08-13T01:45:43.832Z,14.90
2018-08-13T01:48:12.455Z,14.80
2018-08-13T01:50:40.993Z,14.80
2018-08-13T01:53:10.044Z,14.80
2018-08-13T01:55:38.931Z,14.70
2018-08-13T01:58:07.450Z,14.70
2018-08-13T02:00:36.025Z,14.60
2018-08-13T02:03:04.903Z,14.60
2018-08-13T02:05:33.444Z,14.60
2018-08-13T02:08:02.002Z,14.60
2018-08-13T02:10:30.587Z,14.60
2018-08-13T02:12:59.200Z,14.60
2018-08-13T02:15:27.771Z,14.60
2018-08-13T02:17:56.303Z,14.60
2018-08-13T02:20:24.861Z,14.50
2018-08-13T02:22:53.431Z,14.50
2018-08-13T02:25:22.019Z,14.40
2018-08-13T02:27:50.579Z,14.40
2018-08-13T02:30:19.084Z,14.30
2018-08-13T02:32:47.639Z,14.40
2018-08-13T02:35:16.200Z,14.40
2018-08-13T02:37:44.770Z,14.40
2018-08-13T02:40:13.315Z,14.40
2018-08-13T02:42:41.927Z,14.50
2018-08-13T02:45:11.409Z,14.50
2018-08-13T02:47:40.012Z,14.50
2018-08-13T02:50:11.347Z,14.50
2018-08-13T02:52:40.146Z,14.50
2018-08-13T02:55:09.541Z,14.60
2018-08-13T02:57:38.153Z,14.60
2018-08-13T03:00:08.416Z,14.60
2018-08-13T03:02:37.073Z,14.60
2018-08-13T03:05:07.607Z,14.70
2018-08-13T03:07:36.184Z,14.70
2018-08-13T03:10:07.218Z,14.70
2018-08-13T03:12:36.137Z,14.80
2018-08-13T03:15:06.640Z,14.80
2018-08-13T03:17:35.152Z,14.80
2018-08-13T03:20:03.822Z,14.80
2018-08-13T03:22:32.365Z,14.70
2018-08-13T03:25:02.089Z,14.70
2018-08-13T03:27:30.689Z,14.70
2018-08-13T03:30:00.229Z,14.70
2018-08-13T03:32:28.900Z,14.70
2018-08-13T03:34:57.522Z,14.70
2018-08-13T03:37:26.042Z,14.80
2018-08-13T03:39:54.601Z,14.80
2018-08-13T03:42:23.118Z,14.80
2018-08-13T03:44:51.638Z,14.80
2018-08-13T03:47:20.177Z,14.70
2018-08-13T03:49:48.730Z,14.80
2018-08-13T03:52:17.239Z,14.80
2018-08-13T03:54:45.820Z,14.80
2018-08-13T03:57:14.380Z,14.80
2018-08-13T03:59:42.941Z,14.80
2018-08-13T04:02:11.530Z,14.80
2018-08-13T04:04:40.078Z,14.80
2018-08-13T04:07:08.746Z,14.80
2018-08-13T04:09:37.303Z,14.80
2018-08-13T04:12:05.889Z,14.80
2018-08-13T04:14:34.491Z,14.90
2018-08-13T04:17:03.566Z,14.90
2018-08-13T04:19:33.521Z,14.90
2018-08-13T04:22:02.800Z,14.90
2018-08-13T04:24:31.544Z,15.00
2018-08-13T04:27:00.572Z,15.00
2018-08-13T04:29:29.227Z,15.00
2018-08-13T04:31:57.754Z,15.00
2018-08-13T04:34:26.317Z,15.00
2018-08-13T04:36:54.866Z,15.10
2018-08-13T04:39:23.413Z,15.20
2018-08-13T04:41:51.960Z,15.10
2018-08-13T04:44:20.568Z,15.20
2018-08-13T04:46:49.126Z,15.20
2018-08-13T04:49:17.635Z,15.30
2018-08-13T04:51:46.162Z,15.40
2018-08-13T04:54:14.713Z,15.50
2018-08-13T04:56:43.240Z,15.60
2018-08-13T04:59:11.824Z,15.60
2018-08-13T05:01:40.423Z,15.80
2018-08-13T05:04:08.940Z,15.80
2018-08-13T05:06:37.469Z,15.90
2018-08-13T05:09:08.184Z,16.10
2018-08-13T05:11:37.208Z,16.10
2018-08-13T05:14:05.775Z,16.30
2018-08-13T05:16:34.375Z,16.60
2018-08-13T05:19:03.001Z,16.90
2018-08-13T05:21:31.568Z,17.00
2018-08-13T05:24:00.158Z,17.10
2018-08-13T05:26:28.809Z,17.20
2018-08-13T05:28:57.364Z,17.40
2018-08-13T05:31:25.943Z,17.60
2018-08-13T05:33:54.859Z,17.70
2018-08-13T05:36:23.419Z,17.80
2018-08-13T05:38:52.009Z,18.00
2018-08-13T05:41:20.635Z,18.10
2018-08-13T05:43:49.171Z,18.30
2018-08-13T05:46:17.732Z,18.50
2018-08-13T05:48:46.335Z,18.70
2018-08-13T05:51:14.909Z,18.80
2018-08-13T05:53:43.517Z,18.90
2018-08-13T05:56:12.090Z,19.20
2018-08-13T05:58:40.702Z,19.40
2018-08-13T06:01:09.264Z,19.60
2018-08-13T06:03:37.820Z,19.90
2018-08-13T06:06:06.467Z,20.10
2018-08-13T06:08:35.037Z,20.30
2018-08-13T06:11:03.640Z,20.50
2018-08-13T06:13:32.282Z,20.70
2018-08-13T06:16:00.869Z,20.80
2018-08-13T06:18:29.413Z,21.20
2018-08-13T06:20:58.014Z,21.40
2018-08-13T06:23:26.602Z,21.70
2018-08-13T06:25:55.238Z,21.90
2018-08-13T06:28:23.785Z,22.10
2018-08-13T06:30:52.375Z,22.20
2018-08-13T06:33:20.956Z,22.40
2018-08-13T06:35:49.543Z,22.50
2018-08-13T06:38:18.125Z,22.60
2018-08-13T06:40:46.645Z,22.80
2018-08-13T06:43:15.238Z,22.90
2018-08-13T06:45:43.743Z,23.00
2018-08-13T06:48:12.280Z,23.10
2018-08-13T06:50:40.818Z,23.20
2018-08-13T06:53:09.385Z,23.40
2018-08-13T06:55:37.966Z,23.60
2018-08-13T06:58:06.754Z,23.70
2018-08-13T07:00:35.317Z,23.80
2018-08-13T07:03:03.918Z,23.90
2018-08-13T07:05:32.502Z,24.00
2018-08-13T07:08:01.075Z,24.10
2018-08-13T07:10:32.590Z,24.30
2018-08-13T07:13:02.305Z,24.40
2018-08-13T07:15:30.913Z,24.40
2018-08-13T07:17:59.486Z,24.60
2018-08-13T07:20:28.162Z,24.60
2018-08-13T07:22:56.726Z,24.70
2018-08-13T07:25:25.320Z,24.90
2018-08-13T07:27:53.963Z,25.10
2018-08-13T07:30:22.424Z,25.30
2018-08-13T07:32:51.041Z,25.50
2018-08-13T07:35:19.659Z,25.60
2018-08-13T07:37:48.223Z,25.60
2018-08-13T07:40:17.598Z,25.70
2018-08-13T07:42:46.601Z,25.80
2018-08-13T07:45:15.167Z,25.80
2018-08-13T07:47:43.887Z,25.90
2018-08-13T07:50:14.109Z,25.90
2018-08-13T07:52:42.751Z,26.00
2018-08-13T07:55:11.990Z,26.00
2018-08-13T07:57:41.085Z,26.10
2018-08-13T08:00:14.524Z,26.20
2018-08-13T08:02:43.113Z,26.30
2018-08-13T08:05:11.729Z,26.30
2018-08-13T08:07:40.350Z,26.40
2018-08-13T08:10:10.739Z,26.40
2018-08-13T08:12:39.567Z,26.60
2018-08-13T08:15:11.146Z,26.80
2018-08-13T08:17:39.828Z,26.90
2018-08-13T08:20:08.479Z,27.00
2018-08-13T08:22:37.380Z,27.10
2018-08-13T08:25:09.254Z,27.20
2018-08-13T08:27:37.849Z,27.20
2018-08-13T08:30:07.765Z,27.30
2018-08-13T08:32:36.756Z,27.40
2018-08-13T08:35:06.695Z,27.50
2018-08-13T08:37:35.487Z,27.60
2018-08-13T08:40:05.011Z,27.70
2018-08-13T08:42:33.633Z,27.70
2018-08-13T08:45:02.250Z,27.90
2018-08-13T08:47:30.825Z,27.90
2018-08-13T08:49:59.367Z,28.00
2018-08-13T08:52:27.890Z,28.20
2018-08-13T08:54:56.519Z,28.40
2018-08-13T08:57:25.112Z,28.50
2018-08-13T08:59:53.684Z,28.50
2018-08-13T09:02:22.316Z,28.70
2018-08-13T09:04:50.825Z,28.70
2018-08-13T09:07:19.447Z,28.80
2018-08-13T09:09:48.004Z,29.00
2018-08-13T09:12:16.569Z,29.00
2018-08-13T09:14:45.142Z,29.00
2018-08-13T09:17:13.837Z,29.00
2018-08-13T09:19:53.528Z,29.00
2018-08-13T09:22:33.361Z,29.00
2018-08-13T09:25:13.122Z,29.00
2018-08-13T09:27:52.810Z,29.00
2018-08-13T09:30:32.484Z,29.10
2018-08-13T09:33:12.150Z,29.20
2018-08-13T09:35:40.794Z,29.30
2018-08-13T09:38:09.388Z,29.40
2018-08-13T09:40:37.940Z,29.60
2018-08-13T09:43:06.558Z,29.70
2018-08-13T09:45:35.094Z,29.70
2018-08-13T09:48:03.738Z,29.70
2018-08-13T09:50:32.280Z,29.90
2018-08-13T09:53:00.866Z,30.10
2018-08-13T09:55:29.433Z,30.20
2018-08-13T09:57:58.043Z,30.10
2018-08-13T10:00:31.838Z,29.90
2018-08-13T10:03:00.377Z,29.70
2018-08-13T10:05:28.932Z,29.70
2018-08-13T10:07:57.487Z,29.80
2018-08-13T10:10:26.022Z,29.80
2018-08-13T10:12:54.572Z,29.90
2018-08-13T10:15:23.200Z,30.10
2018-08-13T10:17:51.808Z,30.40
2018-08-13T10:20:21.551Z,30.50
2018-08-13T10:22:50.156Z,30.70
2018-08-13T10:25:18.782Z,30.80
2018-08-13T10:27:47.364Z,30.80
2018-08-13T10:30:16.921Z,30.80
2018-08-13T10:32:45.903Z,30.80
2018-08-13T10:35:14.486Z,30.80
2018-08-13T10:37:43.271Z,30.70
2018-08-13T10:40:15.985Z,30.70
2018-08-13T10:42:44.897Z,30.70
2018-08-13T10:45:13.584Z,30.60
2018-08-13T10:47:42.106Z,30.70
2018-08-13T10:50:12.379Z,30.90
2018-08-13T10:52:41.381Z,31.10
2018-08-13T10:55:11.381Z,31.30
2018-08-13T10:57:40.167Z,31.60
2018-08-13T11:00:11.418Z,31.80
2018-08-13T11:02:40.028Z,32.00
2018-08-13T11:05:09.732Z,31.80
2018-08-13T11:07:38.514Z,31.50
2018-08-13T11:10:09.956Z,31.50
2018-08-13T11:12:38.672Z,31.60
2018-08-13T11:15:11.848Z,31.60
2018-08-13T11:17:40.774Z,31.50
2018-08-13T11:20:09.652Z,31.50
2018-08-13T11:22:38.817Z,31.70
2018-08-13T11:25:08.567Z,32.00
2018-08-13T11:27:37.175Z,32.00
2018-08-13T11:30:07.372Z,32.00
2018-08-13T11:32:35.960Z,32.20
2018-08-13T11:35:04.816Z,32.60
2018-08-13T11:37:33.358Z,32.60
2018-08-13T11:40:02.042Z,32.60
2018-08-13T11:42:30.633Z,32.50
2018-08-13T11:44:59.175Z,32.60
2018-08-13T11:47:27.739Z,32.90
2018-08-13T11:49:56.362Z,33.20
2018-08-13T11:52:24.950Z,33.30
2018-08-13T11:54:53.482Z,33.20
2018-08-13T11:57:22.187Z,33.20
2018-08-13T11:59:50.702Z,33.20
2018-08-13T12:02:19.267Z,33.30
2018-08-13T12:04:47.850Z,33.00
2018-08-13T12:07:16.386Z,32.70
2018-08-13T12:09:44.936Z,32.60
2018-08-13T12:12:13.986Z,32.70
2018-08-13T12:14:42.522Z,32.90
2018-08-13T12:17:11.761Z,32.70
2018-08-13T12:19:40.459Z,32.70
2018-08-13T12:22:09.035Z,32.70
2018-08-13T12:24:37.570Z,32.80
2018-08-13T12:27:06.141Z,32.80
2018-08-13T12:29:34.732Z,32.80
2018-08-13T12:32:03.298Z,32.90
2018-08-13T12:34:31.862Z,32.90
2018-08-13T12:37:05.624Z,33.10
2018-08-13T12:39:34.178Z,33.00
2018-08-13T12:42:02.770Z,33.20
2018-08-13T12:44:31.325Z,33.20
2018-08-13T12:46:59.918Z,33.20
2018-08-13T12:49:28.434Z,33.00
2018-08-13T12:51:57.002Z,33.20
2018-08-13T12:54:25.515Z,33.30
2018-08-13T12:56:54.061Z,33.50
2018-08-13T12:59:22.566Z,33.70
2018-08-13T13:01:51.124Z,33.70
2018-08-13T13:04:21.730Z,33.50
2018-08-13T13:06:50.258Z,33.50
2018-08-13T13:09:18.796Z,33.40
2018-08-13T13:11:47.304Z,33.40
2018-08-13T13:14:15.876Z,33.60
2018-08-13T13:16:44.452Z,33.80
2018-08-13T13:19:12.980Z,33.90
2018-08-13T13:21:41.666Z,33.90
2018-08-13T13:24:10.207Z,33.90
2018-08-13T13:26:38.806Z,34.00
2018-08-13T13:29:07.449Z,34.10
2018-08-13T13:31:36.024Z,34.00
2018-08-13T13:34:04.588Z,33.80
2018-08-13T13:36:33.145Z,33.80
2018-08-13T13:39:01.741Z,33.70
2018-08-13T13:41:30.297Z,33.60
2018-08-13T13:43:58.844Z,33.30
2018-08-13T13:46:27.376Z,33.20
2018-08-13T13:48:55.881Z,33.10
2018-08-13T13:51:24.472Z,33.10
2018-08-13T13:53:53.068Z,33.10
2018-08-13T13:56:21.598Z,33.30
2018-08-13T13:58:50.142Z,33.30
2018-08-13T14:01:18.693Z,33.30
2018-08-13T14:03:47.360Z,33.10
2018-08-13T14:06:15.985Z,33.00
2018-08-13T14:08:44.522Z,33.00
2018-08-13T14:11:13.094Z,33.10
2018-08-13T14:13:41.682Z,33.10
2018-08-13T14:16:10.285Z,33.20
2018-08-13T14:18:38.842Z,33.10
2018-08-13T14:21:07.432Z,32.80
2018-08-13T14:23:36.014Z,32.40
2018-08-13T14:26:04.632Z,32.30
2018-08-13T14:28:33.227Z,32.10
2018-08-13T14:31:01.839Z,32.10
2018-08-13T14:33:30.506Z,31.80
2018-08-13T14:35:59.242Z,31.70
2018-08-13T14:38:27.819Z,31.80
2018-08-13T14:40:56.432Z,31.80
2018-08-13T14:43:25.004Z,31.80
2018-08-13T14:45:53.553Z,31.90
2018-08-13T14:48:22.129Z,31.90
2018-08-13T14:50:50.723Z,31.80
2018-08-13T14:53:19.374Z,31.90
2018-08-13T14:55:48.042Z,32.00
2018-08-13T14:58:16.616Z,32.00
2018-08-13T15:00:45.151Z,32.00
2018-08-13T15:03:13.744Z,31.90
2018-08-13T15:05:42.476Z,31.80
2018-08-13T15:08:11.026Z,31.60
2018-08-13T15:10:39.688Z,31.50
2018-08-13T15:13:08.324Z,31.40
2018-08-13T15:15:36.984Z,31.30
2018-08-13T15:18:05.569Z,31.20
2018-08-13T15:20:34.198Z,31.10
2018-08-13T15:23:02.787Z,31.00
2018-08-13T15:25:31.376Z,30.80
2018-08-13T15:28:00.177Z,30.70
2018-08-13T15:30:28.653Z,30.60
2018-08-13T15:32:57.189Z,30.50
2018-08-13T15:35:25.734Z,30.40
2018-08-13T15:37:54.277Z,30.40
2018-08-13T15:40:22.867Z,30.30
2018-08-13T15:42:51.393Z,30.20
2018-08-13T15:45:22.370Z,30.10
2018-08-13T15:47:51.260Z,29.60
2018-08-13T15:50:20.958Z,28.80
2018-08-13T15:52:50.038Z,28.30
2018-08-13T15:55:20.000Z,27.70
2018-08-13T15:57:48.924Z,27.20
2018-08-13T16:00:25.046Z,26.60
2018-08-13T16:02:54.024Z,25.90
2018-08-13T16:05:22.858Z,25.50
2018-08-13T16:07:52.473Z,25.20
2018-08-13T16:10:21.156Z,25.10
2018-08-13T16:12:49.714Z,25.00
2018-08-13T16:15:18.308Z,25.00
2018-08-13T16:17:46.841Z,25.00
2018-08-13T16:20:17.494Z,25.00
2018-08-13T16:22:46.688Z,25.00
2018-08-13T16:25:15.696Z,24.70
2018-08-13T16:27:45.065Z,24.60
2018-08-13T16:30:16.369Z,24.50
2018-08-13T16:32:45.960Z,24.40
2018-08-13T16:35:14.688Z,24.30
2018-08-13T16:40:23.159Z,24.30
2018-08-13T16:42:52.362Z,24.30
2018-08-13T16:45:21.865Z,24.20
2018-08-13T16:47:50.837Z,24.10
2018-08-13T16:50:25.162Z,23.90
2018-08-13T16:52:54.055Z,23.80
2018-08-13T16:55:22.846Z,23.70
2018-08-13T16:57:51.464Z,23.70
2018-08-13T17:00:22.024Z,23.70
2018-08-13T17:02:50.794Z,23.70
2018-08-13T17:05:19.589Z,23.80
2018-08-13T17:07:49.179Z,23.70
2018-08-13T17:10:21.087Z,23.70
2018-08-13T17:12:50.252Z,23.60
2018-08-13T17:15:18.923Z,23.50
2018-08-13T17:17:49.341Z,23.50
2018-08-13T17:20:20.011Z,23.60
2018-08-13T17:22:48.662Z,23.50
2018-08-13T17:25:17.440Z,23.50
2018-08-13T17:27:46.150Z,23.50
2018-08-13T17:30:18.148Z,23.50
2018-08-13T17:32:47.743Z,23.50
2018-08-13T17:35:17.739Z,23.50
2018-08-13T17:37:46.384Z,23.50
2018-08-13T17:40:22.576Z,23.40
2018-08-13T17:42:51.581Z,23.40
2018-08-13T17:45:20.151Z,23.30
2018-08-13T17:47:48.802Z,23.40
2018-08-13T17:50:18.824Z,23.40
2018-08-13T17:52:47.678Z,23.40
2018-08-13T17:55:16.932Z,23.40
2018-08-13T17:57:45.969Z,23.40
2018-08-13T18:00:23.342Z,23.40
2018-08-13T18:02:51.979Z,23.30
2018-08-13T18:05:22.640Z,23.20
2018-08-13T18:07:51.701Z,23.00
2018-08-13T18:10:25.845Z,23.00
2018-08-13T18:12:54.869Z,22.80
2018-08-13T18:15:23.494Z,22.60
2018-08-13T18:17:52.098Z,22.50
2018-08-13T18:20:20.728Z,22.40
2018-08-13T18:22:49.429Z,22.30
2018-08-13T18:25:19.054Z,22.30
2018-08-13T18:27:50.811Z,22.10
2018-08-13T18:30:21.748Z,21.80
2018-08-13T18:32:50.505Z,21.80
2018-08-13T18:35:19.825Z,21.80
2018-08-13T18:37:48.623Z,21.70
2018-08-13T18:40:24.406Z,21.60
2018-08-13T18:42:53.877Z,21.60
2018-08-13T18:45:22.506Z,21.60
2018-08-13T18:47:51.704Z,21.50
2018-08-13T18:50:21.272Z,21.40
2018-08-13T18:52:49.934Z,21.40
2018-08-13T18:55:20.806Z,21.50
2018-08-13T18:57:49.900Z,21.60
2018-08-13T19:00:30.747Z,21.60
2018-08-13T19:03:00.860Z,21.50
2018-08-13T19:05:30.126Z,21.40
2018-08-13T19:07:59.375Z,21.40
2018-08-13T19:10:28.081Z,21.40
2018-08-13T19:12:56.831Z,21.40
2018-08-13T19:15:26.714Z,21.30
2018-08-13T19:17:55.438Z,21.20
2018-08-13T19:20:25.277Z,21.20
2018-08-13T19:22:54.034Z,21.20
2018-08-13T19:25:28.470Z,21.10
2018-08-13T19:27:57.252Z,21.10
2018-08-13T19:30:26.411Z,21.10
2018-08-13T19:32:55.604Z,21.00
2018-08-13T19:35:26.452Z,21.00
2018-08-13T19:37:56.577Z,21.00
2018-08-13T19:40:26.134Z,20.90
2018-08-13T19:42:55.028Z,20.80
2018-08-13T19:45:24.212Z,20.70
2018-08-13T19:47:53.325Z,20.60
2018-08-13T19:50:22.011Z,20.50
2018-08-13T19:52:51.191Z,20.40
2018-08-13T19:55:21.355Z,20.30
2018-08-13T19:57:50.188Z,20.30
2018-08-13T20:00:22.917Z,20.20
2018-08-13T20:02:52.091Z,20.20
2018-08-13T20:05:23.100Z,20.20
2018-08-13T20:07:52.200Z,20.20
2018-08-13T20:10:20.945Z,20.20
2018-08-13T20:12:49.652Z,20.30
2018-08-13T20:15:18.234Z,20.40
2018-08-13T20:17:46.983Z,20.40
2018-08-13T20:20:18.043Z,20.50
2018-08-13T20:22:47.470Z,20.50
2018-08-13T20:25:17.388Z,20.50
2018-08-13T20:27:46.528Z,20.50
2018-08-13T20:30:17.410Z,20.50
2018-08-13T20:32:49.752Z,20.50
2018-08-13T20:35:18.535Z,20.50
2018-08-13T20:37:47.205Z,20.50
2018-08-13T20:40:17.460Z,20.50
2018-08-13T20:42:46.958Z,20.40
2018-08-13T20:45:17.498Z,20.40
2018-08-13T20:47:46.591Z,20.40
2018-08-13T20:50:18.337Z,20.40
2018-08-13T20:52:47.998Z,20.30
2018-08-13T20:55:18.936Z,20.20
2018-08-13T20:57:48.449Z,20.10
2018-08-13T21:00:18.627Z,20.00
2018-08-13T21:02:47.747Z,20.00
2018-08-13T21:05:17.130Z,19.90
2018-08-13T21:07:46.621Z,19.90
2018-08-13T21:10:18.982Z,19.90
2018-08-13T21:12:47.837Z,19.80
2018-08-13T21:15:16.848Z,19.80
2018-08-13T21:17:45.608Z,19.80
2018-08-13T21:20:20.247Z,19.70
2018-08-13T21:22:48.913Z,19.70
2018-08-13T21:25:17.512Z,19.70
2018-08-13T21:27:46.350Z,19.70
2018-08-13T21:30:14.928Z,19.70
2018-08-13T21:32:44.239Z,19.60
2018-08-13T21:35:17.312Z,19.60
2018-08-13T21:37:45.988Z,19.60
2018-08-13T21:40:14.684Z,19.60
2018-08-13T21:42:43.595Z,19.60
2018-08-13T21:45:12.679Z,19.60
2018-08-13T21:47:41.405Z,19.60
2018-08-13T21:50:19.885Z,19.60
2018-08-13T21:52:49.192Z,19.60
2018-08-13T21:55:17.832Z,19.70
2018-08-13T21:57:46.502Z,19.70
2018-08-13T22:00:24.752Z,19.70
2018-08-13T22:02:53.748Z,19.70
2018-08-13T22:05:22.511Z,19.70
2018-08-13T22:07:51.107Z,19.60
2018-08-13T22:10:19.716Z,19.70
2018-08-13T22:12:48.409Z,19.60
2018-08-13T22:15:28.697Z,19.70
2018-08-13T22:17:59.106Z,19.70
2018-08-13T22:20:28.498Z,19.70
2018-08-13T22:22:58.231Z,19.70
2018-08-13T22:25:29.106Z,19.70
2018-08-13T22:27:58.288Z,19.70
2018-08-13T22:30:27.309Z,19.70
2018-08-13T22:32:55.920Z,19.70
2018-08-13T22:35:24.533Z,19.70
2018-08-13T22:37:53.092Z,19.70
2018-08-13T22:40:22.065Z,19.60
2018-08-13T22:42:50.715Z,19.60
2018-08-13T22:45:21.150Z,19.60
2018-08-13T22:47:49.778Z,19.60
2018-08-13T22:50:18.334Z,19.60
2018-08-13T22:52:46.924Z,19.60
2018-08-13T22:55:16.992Z,19.60
2018-08-13T22:57:45.629Z,19.60
2018-08-13T23:00:16.035Z,19.70
2018-08-13T23:02:45.347Z,19.70
2018-08-13T23:05:33.398Z,19.70
2018-08-13T23:08:02.013Z,19.70
2018-08-13T23:10:30.620Z,19.70
2018-08-13T23:12:59.257Z,19.70
2018-08-13T23:15:27.925Z,19.70
2018-08-13T23:17:56.510Z,19.70
2018-08-13T23:20:29.873Z,19.70
2018-08-13T23:22:59.733Z,19.80
2018-08-13T23:25:29.038Z,19.80
2018-08-13T23:27:58.773Z,19.80
2018-08-13T23:30:27.587Z,19.80
2018-08-13T23:32:56.927Z,19.80
2018-08-13T23:35:26.067Z,19.80
2018-08-13T23:37:54.936Z,19.80
2018-08-13T23:40:23.950Z,19.80
2018-08-13T23:42:52.587Z,19.90
2018-08-13T23:45:24.199Z,19.80
2018-08-13T23:47:52.809Z,19.80
2018-08-13T23:50:23.023Z,19.80
2018-08-13T23:52:53.008Z,19.80
2018-08-13T23:55:23.491Z,19.70
2018-08-13T23:57:52.231Z,19.70
